sensor_id;sensor_type;location;lat;lon;timestamp;pressure;altitude;pressure_sealevel;temperature;humidity
81802;BME280;71199;52.490;5.448;2023-08-12T00:00:55;101875.47;;;17.66;90.19
81802;BME280;71199;52.490;5.448;2023-08-12T00:03:20;101879.69;;;17.62;90.65
81802;BME280;71199;52.490;5.448;2023-08-12T00:05:46;101879.91;;;17.61;90.80
81802;BME280;71199;52.490;5.448;2023-08-12T00:08:12;101870.69;;;17.60;91.01
81802;BME280;71199;52.490;5.448;2023-08-12T00:10:37;101871.59;;;17.61;90.97
81802;BME280;71199;52.490;5.448;2023-08-12T00:13:03;101865.25;;;17.67;91.01
81802;BME280;71199;52.490;5.448;2023-08-12T00:15:28;101867.81;;;17.68;90.71
81802;BME280;71199;52.490;5.448;2023-08-12T00:17:54;101859.09;;;17.71;90.68
81802;BME280;71199;52.490;5.448;2023-08-12T00:20:19;101853.13;;;17.75;90.40
81802;BME280;71199;52.490;5.448;2023-08-12T00:22:44;101862.78;;;17.79;90.18
81802;BME280;71199;52.490;5.448;2023-08-12T00:25:10;101860.66;;;17.81;90.35
81802;BME280;71199;52.490;5.448;2023-08-12T00:27:35;101870.75;;;17.82;90.17
81802;BME280;71199;52.490;5.448;2023-08-12T00:30:03;101864.22;;;17.75;90.66
81802;BME280;71199;52.490;5.448;2023-08-12T00:32:28;101863.56;;;17.72;90.54
81802;BME280;71199;52.490;5.448;2023-08-12T00:34:53;101863.97;;;17.69;90.96
81802;BME280;71199;52.490;5.448;2023-08-12T00:37:19;101860.91;;;17.64;91.25
81802;BME280;71199;52.490;5.448;2023-08-12T00:39:44;101861.13;;;17.63;91.45
81802;BME280;71199;52.490;5.448;2023-08-12T00:42:10;101860.06;;;17.64;91.52
81802;BME280;71199;52.490;5.448;2023-08-12T00:44:35;101856.59;;;17.62;91.53
81802;BME280;71199;52.490;5.448;2023-08-12T00:47:00;101855.56;;;17.63;91.39
81802;BME280;71199;52.490;5.448;2023-08-12T00:49:26;101846.75;;;17.59;91.68
81802;BME280;71199;52.490;5.448;2023-08-12T00:51:53;101841.19;;;17.59;91.85
81802;BME280;71199;52.490;5.448;2023-08-12T00:54:19;101849.06;;;17.56;91.86
81802;BME280;71199;52.490;5.448;2023-08-12T00:56:49;101836.78;;;17.50;91.94
81802;BME280;71199;52.490;5.448;2023-08-12T00:59:16;101840.84;;;17.47;91.94
81802;BME280;71199;52.490;5.448;2023-08-12T01:01:43;101837.97;;;17.41;92.14
81802;BME280;71199;52.490;5.448;2023-08-12T01:04:08;101836.91;;;17.42;92.10
81802;BME280;71199;52.490;5.448;2023-08-12T01:06:34;101841.25;;;17.44;92.41
81802;BME280;71199;52.490;5.448;2023-08-12T01:09:01;101832.13;;;17.50;92.02
81802;BME280;71199;52.490;5.448;2023-08-12T01:11:38;101832.56;;;17.54;92.06
81802;BME280;71199;52.490;5.448;2023-08-12T01:14:12;101829.41;;;17.57;91.88
81802;BME280;71199;52.490;5.448;2023-08-12T01:16:42;101817.69;;;17.62;91.62
81802;BME280;71199;52.490;5.448;2023-08-12T01:19:11;101822.00;;;17.64;91.54
81802;BME280;71199;52.490;5.448;2023-08-12T01:21:44;101819.50;;;17.69;91.19
81802;BME280;71199;52.490;5.448;2023-08-12T01:24:09;101821.22;;;17.70;91.21
81802;BME280;71199;52.490;5.448;2023-08-12T01:26:35;101826.78;;;17.70;91.26
81802;BME280;71199;52.490;5.448;2023-08-12T01:29:00;101820.84;;;17.73;91.40
81802;BME280;71199;52.490;5.448;2023-08-12T01:31:33;101815.53;;;17.79;90.71
81802;BME280;71199;52.490;5.448;2023-08-12T01:34:12;101820.31;;;17.85;90.60
81802;BME280;71199;52.490;5.448;2023-08-12T01:36:46;101820.59;;;17.90;90.45
81802;BME280;71199;52.490;5.448;2023-08-12T01:39:17;101806.50;;;17.91;90.16
81802;BME280;71199;52.490;5.448;2023-08-12T01:41:43;101803.50;;;17.93;90.14
81802;BME280;71199;52.490;5.448;2023-08-12T01:44:09;101803.78;;;17.98;89.66
81802;BME280;71199;52.490;5.448;2023-08-12T01:46:35;101806.75;;;17.97;89.70
81802;BME280;71199;52.490;5.448;2023-08-12T01:49:01;101790.94;;;17.97;89.80
81802;BME280;71199;52.490;5.448;2023-08-12T01:51:26;101799.94;;;17.99;89.89
81802;BME280;71199;52.490;5.448;2023-08-12T01:53:51;101795.44;;;17.98;89.68
81802;BME280;71199;52.490;5.448;2023-08-12T01:56:17;101787.97;;;17.99;89.64
81802;BME280;71199;52.490;5.448;2023-08-12T01:58:42;101793.53;;;17.99;90.22
81802;BME280;71199;52.490;5.448;2023-08-12T02:01:07;101786.50;;;18.03;89.50
81802;BME280;71199;52.490;5.448;2023-08-12T02:03:33;101785.66;;;18.02;89.66
81802;BME280;71199;52.490;5.448;2023-08-12T02:05:58;101777.03;;;17.97;90.07
81802;BME280;71199;52.490;5.448;2023-08-12T02:08:23;101778.75;;;17.98;89.82
81802;BME280;71199;52.490;5.448;2023-08-12T02:10:49;101766.97;;;17.96;89.89
81802;BME280;71199;52.490;5.448;2023-08-12T02:13:14;101770.81;;;17.95;90.04
81802;BME280;71199;52.490;5.448;2023-08-12T02:15:39;101777.25;;;17.96;90.00
81802;BME280;71199;52.490;5.448;2023-08-12T02:18:05;101775.50;;;17.95;89.99
81802;BME280;71199;52.490;5.448;2023-08-12T02:20:30;101772.53;;;17.96;90.46
81802;BME280;71199;52.490;5.448;2023-08-12T02:22:56;101775.69;;;17.93;90.23
81802;BME280;71199;52.490;5.448;2023-08-12T02:25:21;101755.84;;;17.96;89.95
81802;BME280;71199;52.490;5.448;2023-08-12T02:27:46;101759.28;;;17.98;90.14
81802;BME280;71199;52.490;5.448;2023-08-12T02:30:12;101759.09;;;18.00;90.20
81802;BME280;71199;52.490;5.448;2023-08-12T02:32:37;101758.22;;;17.99;90.33
81802;BME280;71199;52.490;5.448;2023-08-12T02:35:03;101759.69;;;17.95;90.15
81802;BME280;71199;52.490;5.448;2023-08-12T02:37:28;101747.97;;;18.00;90.43
81802;BME280;71199;52.490;5.448;2023-08-12T02:39:54;101749.03;;;17.99;90.55
81802;BME280;71199;52.490;5.448;2023-08-12T02:42:19;101748.84;;;18.00;90.47
81802;BME280;71199;52.490;5.448;2023-08-12T02:44:45;101749.31;;;18.04;90.49
81802;BME280;71199;52.490;5.448;2023-08-12T02:47:10;101739.69;;;18.06;90.97
81802;BME280;71199;52.490;5.448;2023-08-12T02:49:35;101729.22;;;18.08;90.09
81802;BME280;71199;52.490;5.448;2023-08-12T02:52:01;101724.31;;;18.10;90.11
81802;BME280;71199;52.490;5.448;2023-08-12T02:54:26;101731.38;;;18.13;90.11
81802;BME280;71199;52.490;5.448;2023-08-12T02:56:52;101725.81;;;18.13;90.27
81802;BME280;71199;52.490;5.448;2023-08-12T02:59:17;101728.41;;;18.15;90.21
81802;BME280;71199;52.490;5.448;2023-08-12T03:01:42;101731.44;;;18.20;90.08
81802;BME280;71199;52.490;5.448;2023-08-12T03:04:08;101722.03;;;18.21;90.12
81802;BME280;71199;52.490;5.448;2023-08-12T03:06:33;101723.16;;;18.26;89.98
81802;BME280;71199;52.490;5.448;2023-08-12T03:08:58;101721.03;;;18.28;89.91
81802;BME280;71199;52.490;5.448;2023-08-12T03:11:24;101709.03;;;18.28;90.03
81802;BME280;71199;52.490;5.448;2023-08-12T03:13:49;101710.75;;;18.29;89.83
81802;BME280;71199;52.490;5.448;2023-08-12T03:16:15;101708.81;;;18.29;90.38
81802;BME280;71199;52.490;5.448;2023-08-12T03:18:40;101709.69;;;18.30;89.97
81802;BME280;71199;52.490;5.448;2023-08-12T03:21:07;101715.09;;;18.38;89.61
81802;BME280;71199;52.490;5.448;2023-08-12T03:23:34;101706.72;;;18.38;89.84
81802;BME280;71199;52.490;5.448;2023-08-12T03:25:59;101705.25;;;18.42;89.25
81802;BME280;71199;52.490;5.448;2023-08-12T03:28:24;101702.03;;;18.39;89.82
81802;BME280;71199;52.490;5.448;2023-08-12T03:30:51;101701.63;;;18.42;89.53
81802;BME280;71199;52.490;5.448;2023-08-12T03:33:17;101697.09;;;18.41;89.63
81802;BME280;71199;52.490;5.448;2023-08-12T03:35:46;101694.31;;;18.41;89.56
81802;BME280;71199;52.490;5.448;2023-08-12T03:38:13;101694.13;;;18.42;89.67
81802;BME280;71199;52.490;5.448;2023-08-12T03:40:38;101691.53;;;18.41;89.55
81802;BME280;71199;52.490;5.448;2023-08-12T03:43:04;101686.44;;;18.44;89.78
81802;BME280;71199;52.490;5.448;2023-08-12T03:45:29;101682.59;;;18.45;89.95
81802;BME280;71199;52.490;5.448;2023-08-12T03:47:54;101690.72;;;18.47;89.66
81802;BME280;71199;52.490;5.448;2023-08-12T03:50:20;101686.69;;;18.49;89.97
81802;BME280;71199;52.490;5.448;2023-08-12T03:52:45;101683.91;;;18.49;90.49
81802;BME280;71199;52.490;5.448;2023-08-12T03:55:11;101687.53;;;18.50;89.90
81802;BME280;71199;52.490;5.448;2023-08-12T03:57:36;101677.47;;;18.49;89.98
81802;BME280;71199;52.490;5.448;2023-08-12T04:00:02;101680.91;;;18.51;90.21
81802;BME280;71199;52.490;5.448;2023-08-12T04:02:28;101674.28;;;18.52;90.04
81802;BME280;71199;52.490;5.448;2023-08-12T04:04:53;101675.13;;;18.52;90.22
81802;BME280;71199;52.490;5.448;2023-08-12T04:07:18;101672.16;;;18.54;90.31
81802;BME280;71199;52.490;5.448;2023-08-12T04:09:44;101667.63;;;18.53;90.37
81802;BME280;71199;52.490;5.448;2023-08-12T04:12:09;101655.44;;;18.54;90.62
81802;BME280;71199;52.490;5.448;2023-08-12T04:14:35;101657.78;;;18.50;90.96
81802;BME280;71199;52.490;5.448;2023-08-12T04:17:00;101672.56;;;18.51;91.30
81802;BME280;71199;52.490;5.448;2023-08-12T04:19:25;101666.56;;;18.47;91.65
81802;BME280;71199;52.490;5.448;2023-08-12T04:21:51;101659.03;;;18.41;91.83
81802;BME280;71199;52.490;5.448;2023-08-12T04:24:16;101665.03;;;18.45;91.74
81802;BME280;71199;52.490;5.448;2023-08-12T04:26:41;101655.16;;;18.42;91.92
81802;BME280;71199;52.490;5.448;2023-08-12T04:29:07;101659.69;;;18.43;91.95
81802;BME280;71199;52.490;5.448;2023-08-12T04:31:32;101649.41;;;18.44;91.86
81802;BME280;71199;52.490;5.448;2023-08-12T04:33:58;101652.66;;;18.47;91.95
81802;BME280;71199;52.490;5.448;2023-08-12T04:36:23;101636.53;;;18.43;91.85
81802;BME280;71199;52.490;5.448;2023-08-12T04:38:48;101639.13;;;18.44;91.99
81802;BME280;71199;52.490;5.448;2023-08-12T04:41:15;101636.81;;;18.55;92.01
81802;BME280;71199;52.490;5.448;2023-08-12T04:43:40;101637.28;;;18.58;91.83
81802;BME280;71199;52.490;5.448;2023-08-12T04:46:06;101634.94;;;18.62;91.52
81802;BME280;71199;52.490;5.448;2023-08-12T04:48:31;101640.09;;;18.65;91.27
81802;BME280;71199;52.490;5.448;2023-08-12T04:50:58;101634.97;;;18.75;90.99
81802;BME280;71199;52.490;5.448;2023-08-12T04:53:28;101627.75;;;18.81;90.62
81802;BME280;71199;52.490;5.448;2023-08-12T04:55:55;101615.13;;;18.85;90.37
81802;BME280;71199;52.490;5.448;2023-08-12T04:58:21;101623.06;;;18.88;90.19
81802;BME280;71199;52.490;5.448;2023-08-12T05:00:46;101617.28;;;18.83;90.34
81802;BME280;71199;52.490;5.448;2023-08-12T05:03:12;101618.31;;;18.82;90.41
81802;BME280;71199;52.490;5.448;2023-08-12T05:05:37;101619.41;;;18.81;90.59
81802;BME280;71199;52.490;5.448;2023-08-12T05:08:03;101611.06;;;18.81;90.48
81802;BME280;71199;52.490;5.448;2023-08-12T05:10:28;101610.41;;;18.85;90.43
81802;BME280;71199;52.490;5.448;2023-08-12T05:12:57;101607.22;;;18.88;90.55
81802;BME280;71199;52.490;5.448;2023-08-12T05:15:22;101610.88;;;18.89;90.50
81802;BME280;71199;52.490;5.448;2023-08-12T05:17:47;101611.31;;;18.92;89.94
81802;BME280;71199;52.490;5.448;2023-08-12T05:20:13;101605.50;;;18.94;90.01
81802;BME280;71199;52.490;5.448;2023-08-12T05:22:38;101603.81;;;18.93;90.17
81802;BME280;71199;52.490;5.448;2023-08-12T05:25:04;101595.84;;;18.90;89.93
81802;BME280;71199;52.490;5.448;2023-08-12T05:27:29;101586.25;;;18.92;90.16
81802;BME280;71199;52.490;5.448;2023-08-12T05:29:55;101587.94;;;18.93;90.33
81802;BME280;71199;52.490;5.448;2023-08-12T05:32:20;101593.09;;;18.97;90.02
81802;BME280;71199;52.490;5.448;2023-08-12T05:34:45;101586.44;;;18.98;90.01
81802;BME280;71199;52.490;5.448;2023-08-12T05:37:11;101586.91;;;19.01;89.92
81802;BME280;71199;52.490;5.448;2023-08-12T05:39:36;101597.41;;;19.06;89.90
81802;BME280;71199;52.490;5.448;2023-08-12T05:42:02;101590.78;;;19.07;89.77
81802;BME280;71199;52.490;5.448;2023-08-12T05:44:27;101603.84;;;19.13;89.80
81802;BME280;71199;52.490;5.448;2023-08-12T05:46:52;101601.91;;;19.13;89.89
81802;BME280;71199;52.490;5.448;2023-08-12T05:49:18;101604.25;;;19.17;90.12
81802;BME280;71199;52.490;5.448;2023-08-12T05:51:43;101603.84;;;19.20;90.01
81802;BME280;71199;52.490;5.448;2023-08-12T05:54:08;101601.72;;;19.22;90.09
81802;BME280;71199;52.490;5.448;2023-08-12T05:56:34;101606.84;;;19.25;90.23
81802;BME280;71199;52.490;5.448;2023-08-12T05:58:59;101605.59;;;19.27;90.03
81802;BME280;71199;52.490;5.448;2023-08-12T06:01:25;101598.28;;;19.33;89.76
81802;BME280;71199;52.490;5.448;2023-08-12T06:03:50;101592.09;;;19.38;89.54
81802;BME280;71199;52.490;5.448;2023-08-12T06:06:15;101587.78;;;19.48;88.99
81802;BME280;71199;52.490;5.448;2023-08-12T06:08:41;101594.44;;;19.54;89.30
81802;BME280;71199;52.490;5.448;2023-08-12T06:11:06;101603.03;;;19.52;89.14
81802;BME280;71199;52.490;5.448;2023-08-12T06:13:31;101590.56;;;19.55;89.38
81802;BME280;71199;52.490;5.448;2023-08-12T06:15:57;101588.44;;;19.57;89.26
81802;BME280;71199;52.490;5.448;2023-08-12T06:18:22;101594.44;;;19.54;89.51
81802;BME280;71199;52.490;5.448;2023-08-12T06:20:47;101607.31;;;19.55;89.33
81802;BME280;71199;52.490;5.448;2023-08-12T06:23:13;101601.53;;;19.50;89.69
81802;BME280;71199;52.490;5.448;2023-08-12T06:25:38;101602.78;;;19.47;89.74
81802;BME280;71199;52.490;5.448;2023-08-12T06:28:04;101617.16;;;19.44;89.91
81802;BME280;71199;52.490;5.448;2023-08-12T06:30:30;101607.06;;;19.43;89.81
81802;BME280;71199;52.490;5.448;2023-08-12T06:32:55;101596.38;;;19.40;90.24
81802;BME280;71199;52.490;5.448;2023-08-12T06:35:21;101599.16;;;19.33;90.78
81802;BME280;71199;52.490;5.448;2023-08-12T06:37:46;101593.16;;;19.23;91.41
81802;BME280;71199;52.490;5.448;2023-08-12T06:40:12;101596.13;;;19.15;92.05
81802;BME280;71199;52.490;5.448;2023-08-12T06:42:37;101601.47;;;19.10;92.46
81802;BME280;71199;52.490;5.448;2023-08-12T06:45:03;101603.16;;;19.04;92.84
81802;BME280;71199;52.490;5.448;2023-08-12T06:47:29;101596.75;;;18.97;93.00
81802;BME280;71199;52.490;5.448;2023-08-12T06:49:54;101596.94;;;18.96;93.55
81802;BME280;71199;52.490;5.448;2023-08-12T06:52:20;101594.38;;;18.94;93.60
81802;BME280;71199;52.490;5.448;2023-08-12T06:54:45;101597.59;;;18.91;93.80
81802;BME280;71199;52.490;5.448;2023-08-12T06:57:11;101584.50;;;18.91;94.12
81802;BME280;71199;52.490;5.448;2023-08-12T06:59:37;101577.66;;;18.87;94.19
81802;BME280;71199;52.490;5.448;2023-08-12T07:02:02;101577.19;;;18.84;94.52
81802;BME280;71199;52.490;5.448;2023-08-12T07:04:28;101577.63;;;18.81;94.51
81802;BME280;71199;52.490;5.448;2023-08-12T07:06:53;101572.44;;;18.78;94.64
81802;BME280;71199;52.490;5.448;2023-08-12T07:09:19;101567.09;;;18.76;95.21
81802;BME280;71199;52.490;5.448;2023-08-12T07:11:44;101568.59;;;18.72;95.27
81802;BME280;71199;52.490;5.448;2023-08-12T07:14:09;101571.59;;;18.70;95.37
81802;BME280;71199;52.490;5.448;2023-08-12T07:16:35;101562.38;;;18.70;95.65
81802;BME280;71199;52.490;5.448;2023-08-12T07:19:01;101544.59;;;18.64;95.65
81802;BME280;71199;52.490;5.448;2023-08-12T07:21:26;101552.94;;;18.64;95.68
81802;BME280;71199;52.490;5.448;2023-08-12T07:23:51;101551.84;;;18.65;95.93
81802;BME280;71199;52.490;5.448;2023-08-12T07:26:17;101558.31;;;18.66;95.73
81802;BME280;71199;52.490;5.448;2023-08-12T07:28:42;101542.00;;;18.63;95.69
81802;BME280;71199;52.490;5.448;2023-08-12T07:31:08;101540.06;;;18.63;96.00
81802;BME280;71199;52.490;5.448;2023-08-12T07:33:34;101544.78;;;18.63;95.93
81802;BME280;71199;52.490;5.448;2023-08-12T07:35:59;101542.19;;;18.61;95.45
81802;BME280;71199;52.490;5.448;2023-08-12T07:38:24;101552.50;;;18.67;95.69
81802;BME280;71199;52.490;5.448;2023-08-12T07:40:50;101547.19;;;18.72;95.81
81802;BME280;71199;52.490;5.448;2023-08-12T07:43:15;101541.88;;;18.84;95.50
81802;BME280;71199;52.490;5.448;2023-08-12T07:45:41;101550.03;;;18.92;94.94
81802;BME280;71199;52.490;5.448;2023-08-12T07:48:06;101551.34;;;18.97;94.70
81802;BME280;71199;52.490;5.448;2023-08-12T07:50:31;101553.91;;;19.05;94.26
81802;BME280;71199;52.490;5.448;2023-08-12T07:52:57;101546.16;;;19.00;93.74
81802;BME280;71199;52.490;5.448;2023-08-12T07:55:22;101541.91;;;18.98;93.98
81802;BME280;71199;52.490;5.448;2023-08-12T07:57:48;101554.13;;;18.97;93.66
81802;BME280;71199;52.490;5.448;2023-08-12T08:00:13;101547.66;;;18.96;93.97
81802;BME280;71199;52.490;5.448;2023-08-12T08:02:39;101547.47;;;18.98;93.85
81802;BME280;71199;52.490;5.448;2023-08-12T08:05:05;101550.47;;;19.03;93.84
81802;BME280;71199;52.490;5.448;2023-08-12T08:07:30;101541.91;;;19.04;93.52
81802;BME280;71199;52.490;5.448;2023-08-12T08:09:56;101547.91;;;19.01;93.19
81802;BME280;71199;52.490;5.448;2023-08-12T08:12:21;101551.34;;;18.97;93.26
81802;BME280;71199;52.490;5.448;2023-08-12T08:14:46;101544.22;;;18.87;93.58
81802;BME280;71199;52.490;5.448;2023-08-12T08:17:12;101545.31;;;18.86;93.89
81802;BME280;71199;52.490;5.448;2023-08-12T08:19:37;101553.22;;;18.89;94.11
81802;BME280;71199;52.490;5.448;2023-08-12T08:22:03;101553.69;;;18.86;94.06
81802;BME280;71199;52.490;5.448;2023-08-12T08:24:29;101550.66;;;18.81;93.83
81802;BME280;71199;52.490;5.448;2023-08-12T08:26:54;101559.59;;;18.77;94.11
81802;BME280;71199;52.490;5.448;2023-08-12T08:29:20;101557.66;;;18.77;94.47
81802;BME280;71199;52.490;5.448;2023-08-12T08:31:46;101559.59;;;18.77;94.50
81802;BME280;71199;52.490;5.448;2023-08-12T08:34:11;101562.19;;;18.78;94.21
81802;BME280;71199;52.490;5.448;2023-08-12T08:36:37;101560.94;;;18.81;94.70
81802;BME280;71199;52.490;5.448;2023-08-12T08:39:02;101563.94;;;18.86;94.54
81802;BME280;71199;52.490;5.448;2023-08-12T08:41:30;101568.00;;;18.90;94.96
81802;BME280;71199;52.490;5.448;2023-08-12T08:44:02;101563.09;;;18.92;94.30
81802;BME280;71199;52.490;5.448;2023-08-12T08:46:29;101570.78;;;18.90;94.27
81802;BME280;71199;52.490;5.448;2023-08-12T08:48:55;101564.81;;;18.86;94.44
81802;BME280;71199;52.490;5.448;2023-08-12T08:51:24;101568.88;;;18.90;94.99
81802;BME280;71199;52.490;5.448;2023-08-12T08:53:51;101566.31;;;18.89;94.91
81802;BME280;71199;52.490;5.448;2023-08-12T08:56:18;101564.56;;;18.88;94.61
81802;BME280;71199;52.490;5.448;2023-08-12T08:58:44;101571.63;;;18.84;94.43
81802;BME280;71199;52.490;5.448;2023-08-12T09:01:09;101561.31;;;18.78;94.40
81802;BME280;71199;52.490;5.448;2023-08-12T09:03:37;101575.22;;;18.78;94.75
81802;BME280;71199;52.490;5.448;2023-08-12T09:06:03;101612.88;;;18.60;92.41
81802;BME280;71199;52.490;5.448;2023-08-12T09:08:31;101605.75;;;18.09;88.43
81802;BME280;71199;52.490;5.448;2023-08-12T09:10:58;101611.69;;;17.71;88.98
81802;BME280;71199;52.490;5.448;2023-08-12T09:13:24;101617.69;;;17.25;89.40
81802;BME280;71199;52.490;5.448;2023-08-12T09:15:50;101609.50;;;16.96;91.27
81802;BME280;71199;52.490;5.448;2023-08-12T09:18:17;101613.00;;;16.83;91.54
81802;BME280;71199;52.490;5.448;2023-08-12T09:20:42;101607.72;;;16.73;92.27
81802;BME280;71199;52.490;5.448;2023-08-12T09:23:09;101601.69;;;16.69;91.55
81802;BME280;71199;52.490;5.448;2023-08-12T09:25:41;101604.09;;;16.72;91.66
81802;BME280;71199;52.490;5.448;2023-08-12T09:28:09;101606.88;;;16.72;91.50
81802;BME280;71199;52.490;5.448;2023-08-12T09:30:34;101600.84;;;16.69;91.72
81802;BME280;71199;52.490;5.448;2023-08-12T09:33:02;101607.25;;;16.69;91.22
81802;BME280;71199;52.490;5.448;2023-08-12T09:37:58;101619.13;;;16.63;91.02
81802;BME280;71199;52.490;5.448;2023-08-12T09:40:23;101622.50;;;16.59;91.45
81802;BME280;71199;52.490;5.448;2023-08-12T09:42:49;101637.50;;;16.64;91.89
81802;BME280;71199;52.490;5.448;2023-08-12T09:45:15;101627.81;;;16.75;91.61
81802;BME280;71199;52.490;5.448;2023-08-12T09:47:43;101614.81;;;16.90;90.45
81802;BME280;71199;52.490;5.448;2023-08-12T09:50:09;101610.81;;;17.00;89.86
81802;BME280;71199;52.490;5.448;2023-08-12T09:52:36;101612.78;;;17.27;90.57
81802;BME280;71199;52.490;5.448;2023-08-12T09:55:03;101609.72;;;17.65;89.64
81802;BME280;71199;52.490;5.448;2023-08-12T09:57:32;101599.94;;;17.98;89.35
81802;BME280;71199;52.490;5.448;2023-08-12T10:00:00;101620.66;;;18.30;86.57
81802;BME280;71199;52.490;5.448;2023-08-12T10:02:26;101618.97;;;18.36;85.88
81802;BME280;71199;52.490;5.448;2023-08-12T10:04:53;101606.13;;;18.35;86.36
81802;BME280;71199;52.490;5.448;2023-08-12T10:07:23;101594.44;;;18.59;87.37
81802;BME280;71199;52.490;5.448;2023-08-12T10:09:48;101595.63;;;18.85;86.71
81802;BME280;71199;52.490;5.448;2023-08-12T10:12:14;101617.34;;;19.03;85.04
81802;BME280;71199;52.490;5.448;2023-08-12T10:14:40;101618.81;;;18.99;83.67
81802;BME280;71199;52.490;5.448;2023-08-12T10:17:05;101613.44;;;18.90;83.60
81802;BME280;71199;52.490;5.448;2023-08-12T10:19:31;101615.78;;;18.93;84.27
81802;BME280;71199;52.490;5.448;2023-08-12T10:21:58;101609.19;;;19.08;83.29
81802;BME280;71199;52.490;5.448;2023-08-12T10:24:26;101613.50;;;19.24;82.85
81802;BME280;71199;52.490;5.448;2023-08-12T10:26:53;101611.16;;;19.27;82.17
81802;BME280;71199;52.490;5.448;2023-08-12T10:29:20;101605.38;;;19.36;82.68
81802;BME280;71199;52.490;5.448;2023-08-12T10:31:46;101608.56;;;19.39;81.82
81802;BME280;71199;52.490;5.448;2023-08-12T10:34:19;101599.59;;;19.50;81.93
81802;BME280;71199;52.490;5.448;2023-08-12T10:36:45;101619.31;;;19.69;82.56
81802;BME280;71199;52.490;5.448;2023-08-12T10:39:11;101616.75;;;19.81;79.91
81802;BME280;71199;52.490;5.448;2023-08-12T10:41:36;101625.09;;;19.67;79.88
81802;BME280;71199;52.490;5.448;2023-08-12T10:44:05;101615.88;;;19.53;80.60
81802;BME280;71199;52.490;5.448;2023-08-12T10:46:32;101620.16;;;19.63;81.09
81802;BME280;71199;52.490;5.448;2023-08-12T10:48:59;101630.91;;;19.72;79.43
81802;BME280;71199;52.490;5.448;2023-08-12T10:51:49;101628.53;;;19.83;79.92
81802;BME280;71199;52.490;5.448;2023-08-12T10:54:24;101622.94;;;20.03;79.50
81802;BME280;71199;52.490;5.448;2023-08-12T11:04:51;101635.75;;;20.24;77.14
81802;BME280;71199;52.490;5.448;2023-08-12T11:07:18;101626.38;;;20.05;76.62
81802;BME280;71199;52.490;5.448;2023-08-12T11:09:44;101629.81;;;20.07;77.71
81802;BME280;71199;52.490;5.448;2023-08-12T11:12:10;101634.47;;;20.20;78.04
81802;BME280;71199;52.490;5.448;2023-08-12T11:14:52;101623.69;;;20.43;76.23
81802;BME280;71199;52.490;5.448;2023-08-12T11:17:18;101627.94;;;20.66;76.63
81802;BME280;71199;52.490;5.448;2023-08-12T11:19:43;101622.28;;;20.79;77.42
81802;BME280;71199;52.490;5.448;2023-08-12T11:22:09;101612.06;;;20.60;77.60
81802;BME280;71199;52.490;5.448;2023-08-12T11:24:40;101602.47;;;20.36;78.55
81802;BME280;71199;52.490;5.448;2023-08-12T11:27:09;101611.81;;;19.96;77.61
81802;BME280;71199;52.490;5.448;2023-08-12T11:29:35;101606.22;;;19.69;76.99
81802;BME280;71199;52.490;5.448;2023-08-12T11:32:00;101607.31;;;19.55;78.96
81802;BME280;71199;52.490;5.448;2023-08-12T11:34:26;101616.09;;;19.52;79.08
81802;BME280;71199;52.490;5.448;2023-08-12T11:36:51;101615.88;;;19.53;79.29
81802;BME280;71199;52.490;5.448;2023-08-12T11:39:17;101618.44;;;19.55;76.33
81802;BME280;71199;52.490;5.448;2023-08-12T11:41:42;101624.47;;;19.52;76.40
81802;BME280;71199;52.490;5.448;2023-08-12T11:44:21;101622.31;;;19.47;75.82
81802;BME280;71199;52.490;5.448;2023-08-12T11:46:47;101618.66;;;19.40;74.66
81802;BME280;71199;52.490;5.448;2023-08-12T11:49:12;101621.47;;;19.33;75.66
81802;BME280;71199;52.490;5.448;2023-08-12T11:51:37;101628.31;;;19.38;76.72
81802;BME280;71199;52.490;5.448;2023-08-12T11:54:03;101619.75;;;19.46;74.94
81802;BME280;71199;52.490;5.448;2023-08-12T11:56:29;101614.81;;;19.48;74.64
81802;BME280;71199;52.490;5.448;2023-08-12T11:58:55;101619.75;;;19.46;75.53
81802;BME280;71199;52.490;5.448;2023-08-12T12:01:21;101628.31;;;19.51;76.00
81802;BME280;71199;52.490;5.448;2023-08-12T12:03:54;101623.38;;;19.60;73.68
81802;BME280;71199;52.490;5.448;2023-08-12T12:06:36;101622.72;;;19.58;74.29
81802;BME280;71199;52.490;5.448;2023-08-12T12:09:09;101633.66;;;19.66;73.27
81802;BME280;71199;52.490;5.448;2023-08-12T12:11:38;101624.69;;;19.70;74.04
81802;BME280;71199;52.490;5.448;2023-08-12T12:14:06;101630.03;;;19.79;73.64
81802;BME280;71199;52.490;5.448;2023-08-12T12:16:45;101618.91;;;19.85;75.05
81802;BME280;71199;52.490;5.448;2023-08-12T12:19:21;101623.16;;;19.95;73.74
81802;BME280;71199;52.490;5.448;2023-08-12T12:21:52;101621.84;;;20.10;70.82
81802;BME280;71199;52.490;5.448;2023-08-12T12:24:18;101619.28;;;20.09;70.49
81802;BME280;71199;52.490;5.448;2023-08-12T12:26:44;101625.28;;;20.12;70.99
81802;BME280;71199;52.490;5.448;2023-08-12T12:29:10;101622.06;;;20.22;70.00
81802;BME280;71199;52.490;5.448;2023-08-12T12:31:40;101617.97;;;20.25;71.48
81802;BME280;71199;52.490;5.448;2023-08-12T12:34:07;101623.34;;;20.26;69.08
81802;BME280;71199;52.490;5.448;2023-08-12T12:36:35;101622.44;;;20.26;70.82
81802;BME280;71199;52.490;5.448;2023-08-12T12:39:02;101626.13;;;20.26;70.00
81802;BME280;71199;52.490;5.448;2023-08-12T12:41:27;101621.38;;;20.27;70.81
81802;BME280;71199;52.490;5.448;2023-08-12T12:43:53;101622.84;;;20.36;70.66
81802;BME280;71199;52.490;5.448;2023-08-12T12:46:19;101629.06;;;20.38;71.47
81802;BME280;71199;52.490;5.448;2023-08-12T12:48:44;101621.97;;;20.42;69.96
81802;BME280;71199;52.490;5.448;2023-08-12T12:51:11;101633.13;;;20.49;70.86
81802;BME280;71199;52.490;5.448;2023-08-12T12:53:36;101635.69;;;20.50;69.40
81802;BME280;71199;52.490;5.448;2023-08-12T12:56:02;101640.63;;;20.48;71.64